Portada
METAR-TAF:

METAR-TAF

Aeroports :

Tokushima, Japó

latitud: 34-08N, longitud: 134-37E, altitud: 8 m

Observació

L'informe es va fer fa 1 hora i 12 minuts, a les 13:00 UTC
Vent 2 kt amb direcció variable
Temperatura 22°C
Humitat 88%
Pressió 1005 hPa
Visibilitat: 8000 m
Escasses núvols a una alçada de 800 ft
Núvols disperses a una alçada de 12000 ft
Cel ennuvolat a una alçada de 23000 ft

METAR: RJOS 031300Z VRB02KT 8000 FEW008 SCT120 BKN230 22/20 Q1005

Hora: 23:12 (14:12 UTC)


TAF: manca

Observacions i pronòstics meteorològics de més de 4000 aeroports (METAR i TAF).

Les estacions disponibles són els punts grocs i vermells al mapa.

Posi el ratolí al punt desitjat per veure el nom de l'estació.

Feu clic per veure les observacions i els pronòstics meteorològics.

Per canviar el mapa: feu clic els botons verds amb una creu de color negre per apropar; al botó verd amb un guió per allunyar la imatge; o en les fletxes verdes per a mapes adjacents.


METAR-TAF: